sensor_id;sensor_type;location;lat;lon;timestamp;pressure;altitude;pressure_sealevel;temperature;humidity
43878;BME280;29815;48.184;11.268;2023-08-20T00:02:23;95933.53;;;20.19;100.00
43878;BME280;29815;48.184;11.268;2023-08-20T00:04:56;95935.00;;;20.17;100.00
43878;BME280;29815;48.184;11.268;2023-08-20T00:07:27;95925.97;;;20.16;100.00
43878;BME280;29815;48.184;11.268;2023-08-20T00:09:58;95928.41;;;20.18;100.00
43878;BME280;29815;48.184;11.268;2023-08-20T00:12:29;95931.28;;;20.21;100.00
43878;BME280;29815;48.184;11.268;2023-08-20T00:15:00;95927.88;;;20.24;100.00
43878;BME280;29815;48.184;11.268;2023-08-20T00:17:36;95930.63;;;20.24;100.00
43878;BME280;29815;48.184;11.268;2023-08-20T00:20:09;95929.06;;;20.23;100.00
43878;BME280;29815;48.184;11.268;2023-08-20T00:22:42;95918.44;;;20.22;100.00
43878;BME280;29815;48.184;11.268;2023-08-20T00:25:15;95922.28;;;20.21;100.00
43878;BME280;29815;48.184;11.268;2023-08-20T00:27:47;95920.38;;;20.21;100.00
43878;BME280;29815;48.184;11.268;2023-08-20T00:30:16;95923.59;;;20.23;100.00
43878;BME280;29815;48.184;11.268;2023-08-20T00:32:46;95924.72;;;20.22;100.00
43878;BME280;29815;48.184;11.268;2023-08-20T00:35:16;95925.34;;;20.19;100.00
43878;BME280;29815;48.184;11.268;2023-08-20T00:37:46;95929.53;;;20.17;100.00
43878;BME280;29815;48.184;11.268;2023-08-20T00:40:16;95929.84;;;20.15;100.00
43878;BME280;29815;48.184;11.268;2023-08-20T00:42:47;95927.75;;;20.12;100.00
43878;BME280;29815;48.184;11.268;2023-08-20T00:45:17;95927.59;;;20.09;100.00
43878;BME280;29815;48.184;11.268;2023-08-20T00:47:48;95934.81;;;20.05;100.00
43878;BME280;29815;48.184;11.268;2023-08-20T00:50:19;95934.97;;;20.00;100.00
43878;BME280;29815;48.184;11.268;2023-08-20T00:52:49;95940.94;;;19.93;100.00
43878;BME280;29815;48.184;11.268;2023-08-20T00:55:18;95937.84;;;19.86;100.00
43878;BME280;29815;48.184;11.268;2023-08-20T00:57:49;95944.91;;;19.78;100.00
43878;BME280;29815;48.184;11.268;2023-08-20T01:00:19;95948.91;;;19.72;100.00
43878;BME280;29815;48.184;11.268;2023-08-20T01:02:50;95944.72;;;19.66;100.00
43878;BME280;29815;48.184;11.268;2023-08-20T01:05:20;95943.09;;;19.56;100.00
43878;BME280;29815;48.184;11.268;2023-08-20T01:08:04;95940.31;;;19.48;100.00
43878;BME280;29815;48.184;11.268;2023-08-20T01:10:57;95940.78;;;19.41;100.00
43878;BME280;29815;48.184;11.268;2023-08-20T01:13:32;95942.34;;;19.34;100.00
43878;BME280;29815;48.184;11.268;2023-08-20T01:16:02;95931.41;;;19.25;100.00
43878;BME280;29815;48.184;11.268;2023-08-20T01:18:32;95937.47;;;19.22;100.00
43878;BME280;29815;48.184;11.268;2023-08-20T01:21:10;95934.88;;;19.17;100.00
43878;BME280;29815;48.184;11.268;2023-08-20T01:24:23;95935.38;;;19.10;100.00
43878;BME280;29815;48.184;11.268;2023-08-20T01:27:29;95951.38;;;19.03;100.00
43878;BME280;29815;48.184;11.268;2023-08-20T01:30:11;95957.28;;;18.97;100.00
43878;BME280;29815;48.184;11.268;2023-08-20T01:32:41;95953.69;;;18.87;100.00
43878;BME280;29815;48.184;11.268;2023-08-20T01:35:12;95954.97;;;18.81;100.00
43878;BME280;29815;48.184;11.268;2023-08-20T01:37:44;95958.44;;;18.73;100.00
43878;BME280;29815;48.184;11.268;2023-08-20T01:40:14;95956.13;;;18.67;100.00
43878;BME280;29815;48.184;11.268;2023-08-20T01:42:43;95958.97;;;18.62;100.00
43878;BME280;29815;48.184;11.268;2023-08-20T01:45:16;95958.78;;;18.58;100.00
43878;BME280;29815;48.184;11.268;2023-08-20T01:47:48;95958.09;;;18.52;100.00
43878;BME280;29815;48.184;11.268;2023-08-20T01:50:18;95964.97;;;18.50;100.00
43878;BME280;29815;48.184;11.268;2023-08-20T01:52:48;95962.88;;;18.47;100.00
43878;BME280;29815;48.184;11.268;2023-08-20T01:55:17;95956.13;;;18.44;100.00
43878;BME280;29815;48.184;11.268;2023-08-20T01:57:47;95959.47;;;18.41;100.00
43878;BME280;29815;48.184;11.268;2023-08-20T02:00:18;95965.84;;;18.37;100.00
43878;BME280;29815;48.184;11.268;2023-08-20T02:02:47;95961.34;;;18.32;100.00
43878;BME280;29815;48.184;11.268;2023-08-20T02:05:17;95968.81;;;18.26;100.00
43878;BME280;29815;48.184;11.268;2023-08-20T02:07:46;95972.47;;;18.22;100.00
43878;BME280;29815;48.184;11.268;2023-08-20T02:10:16;95969.53;;;18.18;100.00
43878;BME280;29815;48.184;11.268;2023-08-20T02:12:46;95971.25;;;18.14;100.00
43878;BME280;29815;48.184;11.268;2023-08-20T02:15:18;95962.09;;;18.10;100.00
43878;BME280;29815;48.184;11.268;2023-08-20T02:17:48;95956.44;;;18.07;100.00
43878;BME280;29815;48.184;11.268;2023-08-20T02:20:17;95959.00;;;18.03;100.00
43878;BME280;29815;48.184;11.268;2023-08-20T02:22:48;95944.88;;;18.01;100.00
43878;BME280;29815;48.184;11.268;2023-08-20T02:25:18;95956.91;;;18.00;100.00
43878;BME280;29815;48.184;11.268;2023-08-20T02:27:47;95956.69;;;17.97;100.00
43878;BME280;29815;48.184;11.268;2023-08-20T02:30:19;95952.16;;;17.92;100.00
43878;BME280;29815;48.184;11.268;2023-08-20T02:32:49;95958.22;;;17.89;100.00
43878;BME280;29815;48.184;11.268;2023-08-20T02:35:20;95959.13;;;17.84;100.00
43878;BME280;29815;48.184;11.268;2023-08-20T02:37:51;95957.31;;;17.80;100.00
43878;BME280;29815;48.184;11.268;2023-08-20T02:40:21;95959.06;;;17.76;100.00
43878;BME280;29815;48.184;11.268;2023-08-20T02:42:51;95963.50;;;17.72;100.00
43878;BME280;29815;48.184;11.268;2023-08-20T02:45:22;95970.66;;;17.68;100.00
43878;BME280;29815;48.184;11.268;2023-08-20T02:47:52;95968.56;;;17.65;100.00
43878;BME280;29815;48.184;11.268;2023-08-20T02:50:22;95966.41;;;17.62;100.00
43878;BME280;29815;48.184;11.268;2023-08-20T02:52:51;95963.47;;;17.58;100.00
43878;BME280;29815;48.184;11.268;2023-08-20T02:55:21;95969.81;;;17.53;100.00
43878;BME280;29815;48.184;11.268;2023-08-20T02:57:50;95969.66;;;17.50;100.00
43878;BME280;29815;48.184;11.268;2023-08-20T03:00:21;95969.44;;;17.46;100.00
43878;BME280;29815;48.184;11.268;2023-08-20T03:02:51;95966.22;;;17.44;100.00
43878;BME280;29815;48.184;11.268;2023-08-20T03:05:21;95972.69;;;17.48;100.00
43878;BME280;29815;48.184;11.268;2023-08-20T03:07:51;95979.22;;;17.47;100.00
43878;BME280;29815;48.184;11.268;2023-08-20T03:10:20;95975.19;;;17.45;100.00
43878;BME280;29815;48.184;11.268;2023-08-20T03:12:50;95973.59;;;17.44;100.00
43878;BME280;29815;48.184;11.268;2023-08-20T03:15:19;95970.34;;;17.42;100.00
43878;BME280;29815;48.184;11.268;2023-08-20T03:17:50;95981.84;;;17.39;100.00
43878;BME280;29815;48.184;11.268;2023-08-20T03:20:20;95979.72;;;17.36;100.00
43878;BME280;29815;48.184;11.268;2023-08-20T03:22:49;95984.66;;;17.34;100.00
43878;BME280;29815;48.184;11.268;2023-08-20T03:25:19;95981.72;;;17.30;100.00
43878;BME280;29815;48.184;11.268;2023-08-20T03:27:52;95982.34;;;17.27;100.00
43878;BME280;29815;48.184;11.268;2023-08-20T03:30:22;95991.91;;;17.24;100.00
43878;BME280;29815;48.184;11.268;2023-08-20T03:32:53;95995.72;;;17.23;100.00
43878;BME280;29815;48.184;11.268;2023-08-20T03:35:22;95995.25;;;17.21;100.00
43878;BME280;29815;48.184;11.268;2023-08-20T03:37:52;95991.50;;;17.17;100.00
43878;BME280;29815;48.184;11.268;2023-08-20T03:40:22;95990.41;;;17.18;100.00
43878;BME280;29815;48.184;11.268;2023-08-20T03:42:51;95990.91;;;17.20;100.00
43878;BME280;29815;48.184;11.268;2023-08-20T03:45:21;95993.94;;;17.19;100.00
43878;BME280;29815;48.184;11.268;2023-08-20T03:47:51;95990.69;;;17.17;100.00
43878;BME280;29815;48.184;11.268;2023-08-20T03:50:22;95996.44;;;17.15;100.00
43878;BME280;29815;48.184;11.268;2023-08-20T03:52:51;96004.09;;;17.13;100.00
43878;BME280;29815;48.184;11.268;2023-08-20T03:55:21;96002.47;;;17.12;100.00
43878;BME280;29815;48.184;11.268;2023-08-20T03:57:50;96003.38;;;17.08;100.00
43878;BME280;29815;48.184;11.268;2023-08-20T04:00:20;96001.25;;;17.05;100.00
43878;BME280;29815;48.184;11.268;2023-08-20T04:02:50;96001.84;;;17.02;100.00
43878;BME280;29815;48.184;11.268;2023-08-20T04:05:21;96001.34;;;17.00;100.00
43878;BME280;29815;48.184;11.268;2023-08-20T04:07:50;96001.13;;;16.96;100.00
43878;BME280;29815;48.184;11.268;2023-08-20T04:10:21;96001.44;;;16.95;100.00
43878;BME280;29815;48.184;11.268;2023-08-20T04:12:51;95998.22;;;16.92;100.00
43878;BME280;29815;48.184;11.268;2023-08-20T04:15:20;95999.03;;;16.93;100.00
43878;BME280;29815;48.184;11.268;2023-08-20T04:17:50;95998.53;;;16.91;100.00
43878;BME280;29815;48.184;11.268;2023-08-20T04:20:21;95993.38;;;16.89;100.00
43878;BME280;29815;48.184;11.268;2023-08-20T04:22:51;95990.97;;;16.88;100.00
43878;BME280;29815;48.184;11.268;2023-08-20T04:25:20;95996.41;;;16.88;100.00
43878;BME280;29815;48.184;11.268;2023-08-20T04:27:50;96004.84;;;16.86;100.00
43878;BME280;29815;48.184;11.268;2023-08-20T04:30:19;95996.69;;;16.86;100.00
43878;BME280;29815;48.184;11.268;2023-08-20T04:32:49;96007.88;;;16.85;100.00
43878;BME280;29815;48.184;11.268;2023-08-20T04:35:18;96008.16;;;16.83;100.00
43878;BME280;29815;48.184;11.268;2023-08-20T04:37:50;96006.25;;;16.84;100.00
43878;BME280;29815;48.184;11.268;2023-08-20T04:40:20;96009.25;;;16.82;100.00
43878;BME280;29815;48.184;11.268;2023-08-20T04:42:50;96008.16;;;16.83;100.00
43878;BME280;29815;48.184;11.268;2023-08-20T04:45:21;96004.63;;;16.83;100.00
43878;BME280;29815;48.184;11.268;2023-08-20T04:47:50;96015.00;;;16.81;100.00
43878;BME280;29815;48.184;11.268;2023-08-20T04:50:21;96020.44;;;16.81;100.00
43878;BME280;29815;48.184;11.268;2023-08-20T04:52:52;96018.53;;;16.81;100.00
43878;BME280;29815;48.184;11.268;2023-08-20T04:55:23;96019.03;;;16.83;100.00
43878;BME280;29815;48.184;11.268;2023-08-20T04:57:52;96026.91;;;16.85;100.00
43878;BME280;29815;48.184;11.268;2023-08-20T05:00:22;96030.94;;;16.87;100.00
43878;BME280;29815;48.184;11.268;2023-08-20T05:03:06;96031.16;;;16.91;100.00
43878;BME280;29815;48.184;11.268;2023-08-20T05:05:35;96029.22;;;16.91;100.00
43878;BME280;29815;48.184;11.268;2023-08-20T05:08:07;96025.91;;;16.95;100.00
43878;BME280;29815;48.184;11.268;2023-08-20T05:10:37;96020.66;;;16.98;100.00
43878;BME280;29815;48.184;11.268;2023-08-20T05:13:07;96020.06;;;17.01;100.00
43878;BME280;29815;48.184;11.268;2023-08-20T05:15:37;96021.31;;;17.09;100.00
43878;BME280;29815;48.184;11.268;2023-08-20T05:18:06;96019.31;;;17.14;100.00
43878;BME280;29815;48.184;11.268;2023-08-20T05:20:36;96024.06;;;17.22;100.00
43878;BME280;29815;48.184;11.268;2023-08-20T05:23:07;96022.84;;;17.29;100.00
43878;BME280;29815;48.184;11.268;2023-08-20T05:25:36;96022.16;;;17.37;100.00
43878;BME280;29815;48.184;11.268;2023-08-20T05:28:06;96025.78;;;17.46;100.00
43878;BME280;29815;48.184;11.268;2023-08-20T05:30:35;96013.88;;;17.55;100.00
43878;BME280;29815;48.184;11.268;2023-08-20T05:33:05;96011.00;;;17.66;100.00
43878;BME280;29815;48.184;11.268;2023-08-20T05:35:37;96017.53;;;17.78;100.00
43878;BME280;29815;48.184;11.268;2023-08-20T05:38:09;96015.59;;;17.92;100.00
43878;BME280;29815;48.184;11.268;2023-08-20T05:40:39;96009.50;;;18.09;100.00
43878;BME280;29815;48.184;11.268;2023-08-20T05:43:08;96014.13;;;18.22;100.00
43878;BME280;29815;48.184;11.268;2023-08-20T05:45:41;96013.56;;;18.34;100.00
43878;BME280;29815;48.184;11.268;2023-08-20T05:48:14;96011.63;;;18.48;100.00
43878;BME280;29815;48.184;11.268;2023-08-20T05:50:44;96018.75;;;18.58;100.00
43878;BME280;29815;48.184;11.268;2023-08-20T05:53:15;96020.47;;;18.68;100.00
43878;BME280;29815;48.184;11.268;2023-08-20T05:55:47;96013.97;;;18.77;100.00
43878;BME280;29815;48.184;11.268;2023-08-20T05:58:16;96012.41;;;18.85;100.00
43878;BME280;29815;48.184;11.268;2023-08-20T06:00:46;96025.47;;;18.97;100.00
43878;BME280;29815;48.184;11.268;2023-08-20T06:03:16;96017.72;;;19.12;100.00
43878;BME280;29815;48.184;11.268;2023-08-20T06:05:46;96020.34;;;19.26;100.00
43878;BME280;29815;48.184;11.268;2023-08-20T06:08:16;96020.38;;;19.35;100.00
43878;BME280;29815;48.184;11.268;2023-08-20T06:10:46;96025.41;;;19.41;100.00
43878;BME280;29815;48.184;11.268;2023-08-20T06:13:15;96027.97;;;19.46;100.00
43878;BME280;29815;48.184;11.268;2023-08-20T06:15:45;96031.72;;;19.50;100.00
43878;BME280;29815;48.184;11.268;2023-08-20T06:18:15;96028.53;;;19.57;100.00
43878;BME280;29815;48.184;11.268;2023-08-20T06:20:44;96029.88;;;19.68;100.00
43878;BME280;29815;48.184;11.268;2023-08-20T06:23:15;96036.34;;;19.81;100.00
43878;BME280;29815;48.184;11.268;2023-08-20T06:26:03;96033.97;;;19.97;100.00
43878;BME280;29815;48.184;11.268;2023-08-20T06:28:33;96038.31;;;20.06;100.00
43878;BME280;29815;48.184;11.268;2023-08-20T06:31:03;96035.94;;;20.13;100.00
43878;BME280;29815;48.184;11.268;2023-08-20T06:33:32;96028.56;;;20.22;100.00
43878;BME280;29815;48.184;11.268;2023-08-20T06:36:02;96028.56;;;20.31;100.00
43878;BME280;29815;48.184;11.268;2023-08-20T06:38:33;96028.59;;;20.40;100.00
43878;BME280;29815;48.184;11.268;2023-08-20T06:41:03;96023.94;;;20.49;100.00
43878;BME280;29815;48.184;11.268;2023-08-20T06:43:32;96022.81;;;20.58;100.00
43878;BME280;29815;48.184;11.268;2023-08-20T06:46:02;96028.44;;;20.71;100.00
43878;BME280;29815;48.184;11.268;2023-08-20T06:48:32;96030.19;;;20.84;100.00
43878;BME280;29815;48.184;11.268;2023-08-20T06:51:10;96023.44;;;20.99;100.00
43878;BME280;29815;48.184;11.268;2023-08-20T06:53:42;96023.22;;;21.12;100.00
43878;BME280;29815;48.184;11.268;2023-08-20T06:56:12;96025.34;;;21.24;100.00
43878;BME280;29815;48.184;11.268;2023-08-20T06:58:42;96022.22;;;21.34;100.00
43878;BME280;29815;48.184;11.268;2023-08-20T07:01:12;96033.00;;;21.48;100.00
43878;BME280;29815;48.184;11.268;2023-08-20T07:03:43;96031.19;;;21.60;100.00
43878;BME280;29815;48.184;11.268;2023-08-20T07:06:13;96047.72;;;21.73;100.00
43878;BME280;29815;48.184;11.268;2023-08-20T07:08:45;96037.69;;;21.85;100.00
43878;BME280;29815;48.184;11.268;2023-08-20T07:11:15;96050.50;;;22.02;100.00
43878;BME280;29815;48.184;11.268;2023-08-20T07:13:45;96050.25;;;22.16;100.00
43878;BME280;29815;48.184;11.268;2023-08-20T07:16:14;96050.50;;;22.32;100.00
43878;BME280;29815;48.184;11.268;2023-08-20T07:18:44;96053.31;;;22.44;100.00
43878;BME280;29815;48.184;11.268;2023-08-20T07:21:14;96048.38;;;22.58;100.00
43878;BME280;29815;48.184;11.268;2023-08-20T07:23:44;96050.03;;;22.71;100.00
43878;BME280;29815;48.184;11.268;2023-08-20T07:26:14;96051.44;;;22.98;100.00
43878;BME280;29815;48.184;11.268;2023-08-20T07:28:44;96061.03;;;23.13;100.00
43878;BME280;29815;48.184;11.268;2023-08-20T07:31:28;96056.00;;;23.27;100.00
43878;BME280;29815;48.184;11.268;2023-08-20T07:34:02;96062.34;;;23.40;100.00
43878;BME280;29815;48.184;11.268;2023-08-20T07:36:33;96067.91;;;23.52;100.00
43878;BME280;29815;48.184;11.268;2023-08-20T07:39:04;96066.00;;;23.65;100.00
43878;BME280;29815;48.184;11.268;2023-08-20T07:41:34;96060.53;;;23.77;100.00
43878;BME280;29815;48.184;11.268;2023-08-20T07:44:05;96073.72;;;23.95;100.00
43878;BME280;29815;48.184;11.268;2023-08-20T07:46:35;96077.25;;;24.08;100.00
43878;BME280;29815;48.184;11.268;2023-08-20T07:49:04;96080.81;;;24.21;100.00
43878;BME280;29815;48.184;11.268;2023-08-20T07:51:34;96075.34;;;24.33;100.00
43878;BME280;29815;48.184;11.268;2023-08-20T07:54:05;96072.91;;;24.44;100.00
43878;BME280;29815;48.184;11.268;2023-08-20T07:56:35;96068.22;;;24.56;100.00
43878;BME280;29815;48.184;11.268;2023-08-20T07:59:04;96063.13;;;24.71;100.00
43878;BME280;29815;48.184;11.268;2023-08-20T08:01:34;96072.97;;;24.84;100.00
43878;BME280;29815;48.184;11.268;2023-08-20T08:04:04;96066.38;;;25.01;100.00
43878;BME280;29815;48.184;11.268;2023-08-20T08:06:33;96062.91;;;25.16;100.00
43878;BME280;29815;48.184;11.268;2023-08-20T08:09:26;96059.81;;;25.33;100.00
43878;BME280;29815;48.184;11.268;2023-08-20T08:11:57;96059.13;;;25.52;100.00
43878;BME280;29815;48.184;11.268;2023-08-20T08:14:28;96058.06;;;25.69;100.00
43878;BME280;29815;48.184;11.268;2023-08-20T08:16:57;96058.06;;;25.84;100.00
43878;BME280;29815;48.184;11.268;2023-08-20T08:19:27;96063.56;;;26.00;100.00
43878;BME280;29815;48.184;11.268;2023-08-20T08:21:57;96061.97;;;26.15;100.00
43878;BME280;29815;48.184;11.268;2023-08-20T08:24:27;96062.75;;;26.31;100.00
43878;BME280;29815;48.184;11.268;2023-08-20T08:26:57;96060.25;;;26.42;100.00
43878;BME280;29815;48.184;11.268;2023-08-20T08:29:26;96061.38;;;26.56;100.00
43878;BME280;29815;48.184;11.268;2023-08-20T08:31:56;96061.69;;;26.71;100.00
43878;BME280;29815;48.184;11.268;2023-08-20T08:34:25;96058.88;;;26.86;100.00
43878;BME280;29815;48.184;11.268;2023-08-20T08:36:55;96060.75;;;26.98;100.00
43878;BME280;29815;48.184;11.268;2023-08-20T08:39:24;96061.91;;;27.16;100.00
43878;BME280;29815;48.184;11.268;2023-08-20T08:42:01;96063.09;;;27.38;98.99
43878;BME280;29815;48.184;11.268;2023-08-20T08:44:32;96068.06;;;27.48;89.47
43878;BME280;29815;48.184;11.268;2023-08-20T08:47:02;96068.38;;;27.62;90.67
43878;BME280;29815;48.184;11.268;2023-08-20T08:49:33;96064.59;;;27.74;87.25
43878;BME280;29815;48.184;11.268;2023-08-20T08:52:04;96063.31;;;27.91;82.42
43878;BME280;29815;48.184;11.268;2023-08-20T08:54:35;96069.66;;;28.14;77.82
43878;BME280;29815;48.184;11.268;2023-08-20T08:57:05;96070.75;;;28.33;77.19
43878;BME280;29815;48.184;11.268;2023-08-20T08:59:35;96072.09;;;28.42;72.44
43878;BME280;29815;48.184;11.268;2023-08-20T09:02:08;96071.19;;;28.61;67.82
43878;BME280;29815;48.184;11.268;2023-08-20T09:04:40;96072.09;;;28.69;70.55
43878;BME280;29815;48.184;11.268;2023-08-20T09:07:12;96068.38;;;28.84;69.30
43878;BME280;29815;48.184;11.268;2023-08-20T09:09:45;96072.47;;;28.93;70.19
43878;BME280;29815;48.184;11.268;2023-08-20T09:12:16;96067.09;;;29.08;70.88
43878;BME280;29815;48.184;11.268;2023-08-20T09:14:48;96075.59;;;29.22;67.57
43878;BME280;29815;48.184;11.268;2023-08-20T09:17:19;96066.66;;;29.36;69.16
43878;BME280;29815;48.184;11.268;2023-08-20T09:19:49;96076.31;;;29.45;65.07
43878;BME280;29815;48.184;11.268;2023-08-20T09:22:18;96071.66;;;29.56;65.76
43878;BME280;29815;48.184;11.268;2023-08-20T09:24:53;96079.25;;;29.63;65.81
43878;BME280;29815;48.184;11.268;2023-08-20T09:27:24;96071.09;;;29.77;64.44
43878;BME280;29815;48.184;11.268;2023-08-20T09:29:55;96082.31;;;29.91;64.62
43878;BME280;29815;48.184;11.268;2023-08-20T09:32:27;96078.16;;;30.08;63.68
43878;BME280;29815;48.184;11.268;2023-08-20T09:34:57;96082.28;;;30.25;63.35
43878;BME280;29815;48.184;11.268;2023-08-20T09:37:27;96095.91;;;30.44;63.50
43878;BME280;29815;48.184;11.268;2023-08-20T09:39:58;96091.72;;;30.61;61.31
43878;BME280;29815;48.184;11.268;2023-08-20T09:42:30;96096.06;;;30.58;60.14
43878;BME280;29815;48.184;11.268;2023-08-20T09:45:03;96091.72;;;30.68;60.68
43878;BME280;29815;48.184;11.268;2023-08-20T09:47:36;96092.56;;;30.72;60.70
43878;BME280;29815;48.184;11.268;2023-08-20T09:50:10;96089.84;;;30.79;60.53
43878;BME280;29815;48.184;11.268;2023-08-20T09:52:48;96086.72;;;30.88;60.69
43878;BME280;29815;48.184;11.268;2023-08-20T09:55:30;96078.41;;;30.98;59.46
43878;BME280;29815;48.184;11.268;2023-08-20T09:58:03;96084.13;;;31.20;59.89
43878;BME280;29815;48.184;11.268;2023-08-20T10:00:33;96084.56;;;31.29;59.93
43878;BME280;29815;48.184;11.268;2023-08-20T10:03:04;96074.28;;;31.44;58.16
43878;BME280;29815;48.184;11.268;2023-08-20T10:05:34;96073.53;;;31.57;56.92
43878;BME280;29815;48.184;11.268;2023-08-20T10:08:04;96079.97;;;31.72;57.22
43878;BME280;29815;48.184;11.268;2023-08-20T10:10:38;96079.59;;;31.84;56.70
43878;BME280;29815;48.184;11.268;2023-08-20T10:13:13;96073.25;;;31.94;53.35
43878;BME280;29815;48.184;11.268;2023-08-20T10:15:43;96078.03;;;32.05;53.82
43878;BME280;29815;48.184;11.268;2023-08-20T10:18:14;96080.03;;;32.18;54.28
43878;BME280;29815;48.184;11.268;2023-08-20T10:20:44;96070.91;;;32.32;53.29
43878;BME280;29815;48.184;11.268;2023-08-20T10:23:13;96070.91;;;32.53;52.71
43878;BME280;29815;48.184;11.268;2023-08-20T10:25:45;96068.47;;;32.73;51.44
43878;BME280;29815;48.184;11.268;2023-08-20T10:28:21;96073.69;;;32.78;50.23
43878;BME280;29815;48.184;11.268;2023-08-20T10:31:06;96077.63;;;32.95;49.04
43878;BME280;29815;48.184;11.268;2023-08-20T10:33:38;96074.84;;;32.91;49.68
43878;BME280;29815;48.184;11.268;2023-08-20T10:36:19;96072.81;;;33.03;50.29
43878;BME280;29815;48.184;11.268;2023-08-20T10:38:51;96063.97;;;33.22;50.05
43878;BME280;29815;48.184;11.268;2023-08-20T10:41:28;96071.94;;;33.34;48.50
43878;BME280;29815;48.184;11.268;2023-08-20T10:43:59;96071.09;;;33.44;48.37
43878;BME280;29815;48.184;11.268;2023-08-20T10:46:29;96074.66;;;33.48;49.03
43878;BME280;29815;48.184;11.268;2023-08-20T10:49:02;96055.47;;;33.61;48.48
43878;BME280;29815;48.184;11.268;2023-08-20T10:51:33;96065.75;;;33.75;47.54
43878;BME280;29815;48.184;11.268;2023-08-20T10:54:05;96057.34;;;33.85;48.04
43878;BME280;29815;48.184;11.268;2023-08-20T10:56:42;96060.56;;;33.77;47.17
43878;BME280;29815;48.184;11.268;2023-08-20T10:59:18;96058.56;;;33.81;49.10
43878;BME280;29815;48.184;11.268;2023-08-20T11:01:52;96061.72;;;33.90;47.64
43878;BME280;29815;48.184;11.268;2023-08-20T11:04:24;96059.56;;;34.12;46.78
43878;BME280;29815;48.184;11.268;2023-08-20T11:06:57;96057.44;;;34.26;46.53
43878;BME280;29815;48.184;11.268;2023-08-20T11:09:29;96052.63;;;34.34;45.09
43878;BME280;29815;48.184;11.268;2023-08-20T11:12:00;96056.91;;;34.46;45.70
43878;BME280;29815;48.184;11.268;2023-08-20T11:14:29;96056.38;;;34.58;45.37
43878;BME280;29815;48.184;11.268;2023-08-20T11:16:59;96052.28;;;34.70;44.18
43878;BME280;29815;48.184;11.268;2023-08-20T11:19:29;96062.16;;;34.78;44.08
43878;BME280;29815;48.184;11.268;2023-08-20T11:21:59;96059.66;;;34.94;43.82
43878;BME280;29815;48.184;11.268;2023-08-20T11:24:29;96054.31;;;35.07;42.78
43878;BME280;29815;48.184;11.268;2023-08-20T11:27:00;96053.88;;;35.08;42.24
43878;BME280;29815;48.184;11.268;2023-08-20T11:29:29;96054.22;;;35.14;41.67
43878;BME280;29815;48.184;11.268;2023-08-20T11:31:59;96054.91;;;35.25;41.60
43878;BME280;29815;48.184;11.268;2023-08-20T11:34:31;96054.78;;;35.36;40.71
43878;BME280;29815;48.184;11.268;2023-08-20T11:37:01;96046.88;;;35.27;39.47
43878;BME280;29815;48.184;11.268;2023-08-20T11:39:31;96052.34;;;35.38;41.46
43878;BME280;29815;48.184;11.268;2023-08-20T11:42:03;96048.22;;;35.49;39.66
43878;BME280;29815;48.184;11.268;2023-08-20T11:44:43;96047.34;;;35.56;40.86
43878;BME280;29815;48.184;11.268;2023-08-20T11:47:16;96044.69;;;35.72;41.05
43878;BME280;29815;48.184;11.268;2023-08-20T11:49:46;96041.72;;;35.86;41.14
43878;BME280;29815;48.184;11.268;2023-08-20T11:52:18;96039.56;;;35.98;40.60
43878;BME280;29815;48.184;11.268;2023-08-20T11:54:48;96040.56;;;36.11;39.13
43878;BME280;29815;48.184;11.268;2023-08-20T11:57:19;96028.78;;;36.19;40.19
43878;BME280;29815;48.184;11.268;2023-08-20T11:59:49;96037.44;;;36.32;40.40
43878;BME280;29815;48.184;11.268;2023-08-20T12:02:25;96033.22;;;36.44;38.89
43878;BME280;29815;48.184;11.268;2023-08-20T12:05:07;96035.91;;;36.51;38.77
43878;BME280;29815;48.184;11.268;2023-08-20T12:07:37;96035.97;;;36.47;39.25
43878;BME280;29815;48.184;11.268;2023-08-20T12:10:22;96033.63;;;36.66;38.48
43878;BME280;29815;48.184;11.268;2023-08-20T12:12:55;96033.91;;;36.71;38.70
43878;BME280;29815;48.184;11.268;2023-08-20T12:15:25;96021.44;;;36.76;38.47
43878;BME280;29815;48.184;11.268;2023-08-20T12:17:59;96022.25;;;36.96;40.77
43878;BME280;29815;48.184;11.268;2023-08-20T12:20:32;96019.91;;;37.14;40.27
43878;BME280;29815;48.184;11.268;2023-08-20T12:23:05;96023.22;;;37.29;38.90
43878;BME280;29815;48.184;11.268;2023-08-20T12:25:36;96025.66;;;37.47;38.91
43878;BME280;29815;48.184;11.268;2023-08-20T12:28:07;96024.13;;;37.62;39.25
43878;BME280;29815;48.184;11.268;2023-08-20T12:30:36;96020.13;;;37.79;38.17
43878;BME280;29815;48.184;11.268;2023-08-20T12:33:07;96018.25;;;37.92;37.94
43878;BME280;29815;48.184;11.268;2023-08-20T12:35:37;96012.25;;;37.90;36.60
43878;BME280;29815;48.184;11.268;2023-08-20T12:38:06;96010.09;;;37.98;36.86
43878;BME280;29815;48.184;11.268;2023-08-20T12:40:36;96014.47;;;37.99;36.91
43878;BME280;29815;48.184;11.268;2023-08-20T12:43:06;96006.41;;;38.01;36.60
43878;BME280;29815;48.184;11.268;2023-08-20T12:45:36;96008.88;;;38.15;37.18
43878;BME280;29815;48.184;11.268;2023-08-20T12:48:06;95996.81;;;38.31;37.11
43878;BME280;29815;48.184;11.268;2023-08-20T12:50:37;96009.56;;;38.36;36.55
43878;BME280;29815;48.184;11.268;2023-08-20T12:53:07;95996.75;;;38.35;36.11
43878;BME280;29815;48.184;11.268;2023-08-20T12:55:37;96000.88;;;38.30;34.18
43878;BME280;29815;48.184;11.268;2023-08-20T12:58:07;95997.19;;;38.17;36.73
43878;BME280;29815;48.184;11.268;2023-08-20T13:00:37;95982.31;;;38.33;37.91
43878;BME280;29815;48.184;11.268;2023-08-20T13:03:08;95999.72;;;38.60;37.22
43878;BME280;29815;48.184;11.268;2023-08-20T13:05:39;95996.44;;;38.78;36.10